Time;durP1;ratioP1;P1;durP2;ratioP2;P2;SDS_P1;SDS_P2;PMS_P1;PMS_P2;Temp;Humidity;BMP_temperature;BMP_pressure;BME280_temperature;BME280_humidity;BME280_pressure;Samples;Min_cycle;Max_cycle;Signal;HPM_P1;HPM_P2
2022/06/03 00:02:30;;;;;;;1.67;1.02;;;20.70;57.20;;;;;;10054039;28;20037;-63
2022/06/03 00:07:41;;;;;;;2.70;1.27;;;20.80;57.00;;;;;;10057497;28;20025;-62
2022/06/03 00:12:49;;;;;;;1.58;1.13;;;20.70;57.50;;;;;;10039516;28;20470;-64
2022/06/03 00:18:13;;;;;;;2.33;1.52;;;20.50;57.80;;;;;;10057083;28;20032;-63
2022/06/03 00:23:32;;;;;;;1.83;1.40;;;20.30;58.00;;;;;;10052016;28;20637;-64
2022/06/03 00:28:25;;;;;;;3.20;1.65;;;20.50;57.60;;;;;;10056923;28;20021;-64
2022/06/03 00:33:51;;;;;;;2.95;1.30;;;20.50;57.40;;;;;;10057265;28;20492;-64
2022/06/03 00:38:42;;;;;;;5.47;1.42;;;20.40;58.00;;;;;;10056938;28;20030;-64
2022/06/03 00:43:48;;;;;;;1.35;1.25;;;20.40;57.60;;;;;;10056900;28;20408;-63
2022/06/03 00:48:51;;;;;;;3.70;1.60;;;20.20;58.50;;;;;;10051605;28;20425;-63
2022/06/03 00:54:12;;;;;;;1.85;1.65;;;20.10;58.00;;;;;;10055428;28;20212;-63
2022/06/03 00:59:20;;;;;;;1.80;1.50;;;20.10;58.70;;;;;;10056440;28;20342;-63
2022/06/03 01:04:22;;;;;;;2.60;1.63;;;19.90;58.70;;;;;;10051501;28;20094;-63
2022/06/03 01:09:24;;;;;;;2.95;1.38;;;19.80;58.70;;;;;;10052827;28;20082;-63
2022/06/03 01:14:36;;;;;;;4.85;1.38;;;19.70;59.10;;;;;;10054154;28;20033;-63
2022/06/03 01:19:55;;;;;;;1.45;1.10;;;19.80;59.40;;;;;;10055210;28;20056;-64
2022/06/03 01:25:04;;;;;;;2.40;1.52;;;19.90;58.80;;;;;;10054399;28;20025;-63
2022/06/03 01:30:19;;;;;;;2.88;1.60;;;19.70;59.30;;;;;;10054175;28;20061;-63
2022/06/03 01:35:31;;;;;;;1.42;1.30;;;19.60;59.90;;;;;;10054283;28;20095;-63
2022/06/03 01:40:33;;;;;;;2.03;1.30;;;19.50;59.80;;;;;;10054382;28;20042;-63
2022/06/03 01:45:42;;;;;;;1.63;1.48;;;19.60;59.40;;;;;;10048316;28;20018;-63
2022/06/03 01:50:36;;;;;;;1.77;1.42;;;19.40;59.40;;;;;;10053075;28;20108;-63
2022/06/03 01:56:00;;;;;;;1.73;1.50;;;19.40;59.60;;;;;;10053216;28;20025;-63
2022/06/03 02:01:27;;;;;;;1.85;1.40;;;19.60;59.50;;;;;;10035886;28;20077;-64
2022/06/03 02:06:55;;;;;;;2.05;1.35;;;19.40;59.60;;;;;;10051394;28;20029;-62
2022/06/03 02:12:11;;;;;;;2.50;1.30;;;19.30;60.10;;;;;;10044195;28;20033;-63
2022/06/03 02:17:26;;;;;;;1.80;1.17;;;19.20;60.70;;;;;;10055363;28;20482;-63
2022/06/03 02:22:51;;;;;;;1.73;1.50;;;19.20;60.10;;;;;;10035839;28;20300;-63
2022/06/03 02:27:50;;;;;;;1.67;1.58;;;19.20;59.90;;;;;;10043165;28;20072;-63
2022/06/03 02:33:04;;;;;;;2.45;1.48;;;19.10;59.70;;;;;;10052306;28;20061;-63
2022/06/03 02:38:29;;;;;;;2.20;1.15;;;19.10;60.20;;;;;;10051586;28;20025;-63
2022/06/03 02:43:48;;;;;;;2.83;1.45;;;19.10;60.20;;;;;;10050863;28;20037;-64
2022/06/03 02:49:12;;;;;;;2.25;1.25;;;18.90;60.60;;;;;;10018204;28;20468;-63
2022/06/03 02:54:33;;;;;;;1.58;1.38;;;19.00;60.30;;;;;;10052099;28;20056;-63
2022/06/03 02:59:24;;;;;;;2.78;1.75;;;18.90;60.00;;;;;;10052312;28;20108;-62
2022/06/03 03:04:49;;;;;;;1.55;1.33;;;18.70;60.30;;;;;;10042604;28;20525;-63
2022/06/03 03:10:10;;;;;;;1.87;1.40;;;18.80;60.30;;;;;;10050130;28;20055;-63
2022/06/03 03:15:29;;;;;;;1.83;1.73;;;18.80;60.30;;;;;;10042409;28;20107;-63
2022/06/03 03:20:19;;;;;;;2.58;1.60;;;18.80;60.50;;;;;;10051205;28;20495;-64
2022/06/03 03:25:36;;;;;;;2.22;1.60;;;18.50;60.60;;;;;;10033204;28;20252;-63
2022/06/03 03:30:35;;;;;;;2.22;1.40;;;18.50;60.70;;;;;;10051328;28;20036;-63
2022/06/03 03:35:56;;;;;;;2.80;1.75;;;18.60;60.50;;;;;;10051155;28;20099;-63
2022/06/03 03:41:21;;;;;;;1.30;1.20;;;18.40;61.10;;;;;;10040287;28;20319;-63
2022/06/03 03:46:20;;;;;;;2.40;1.30;;;18.40;61.10;;;;;;10044255;28;20029;-63
2022/06/03 03:51:42;;;;;;;1.55;1.40;;;18.30;61.10;;;;;;10050473;28;20111;-63
2022/06/03 03:56:57;;;;;;;3.65;1.30;;;18.30;61.10;;;;;;10048585;28;20488;-63
2022/06/03 04:01:53;;;;;;;2.08;1.65;;;18.20;61.00;;;;;;10037516;28;20037;-64
2022/06/03 04:07:09;;;;;;;2.58;1.85;;;18.20;61.00;;;;;;10031909;28;20108;-64
2022/06/03 04:12:32;;;;;;;1.95;1.27;;;18.30;61.00;;;;;;10050207;28;20022;-64
2022/06/03 04:18:00;;;;;;;3.45;1.35;;;18.30;61.40;;;;;;10011643;28;20083;-63
2022/06/03 04:23:02;;;;;;;1.90;1.25;;;18.30;61.10;;;;;;10050113;28;20041;-64
2022/06/03 04:28:18;;;;;;;2.92;1.63;;;18.30;61.00;;;;;;10057627;28;20041;-64
2022/06/03 04:33:37;;;;;;;3.20;2.08;;;18.30;60.80;;;;;;10057696;28;20061;-63
2022/06/03 04:38:59;;;;;;;2.40;2.00;;;18.40;60.80;;;;;;10057893;28;20114;-63
2022/06/03 04:44:11;;;;;;;2.72;1.67;;;18.40;60.70;;;;;;10056865;28;20036;-63
2022/06/03 04:49:36;;;;;;;3.72;2.10;;;18.50;60.50;;;;;;10037324;28;20076;-63
2022/06/03 04:55:01;;;;;;;6.57;2.15;;;18.60;60.50;;;;;;10051510;28;20087;-63
2022/06/03 05:00:10;;;;;;;1.50;1.40;;;18.40;60.90;;;;;;10057010;28;20518;-63
2022/06/03 05:05:16;;;;;;;3.58;1.73;;;18.30;61.30;;;;;;10049041;28;20041;-63
2022/06/03 05:10:44;;;;;;;2.15;1.70;;;18.30;61.00;;;;;;10045121;28;20030;-63
2022/06/03 05:16:11;;;;;;;4.97;2.38;;;18.40;61.30;;;;;;10055201;28;20021;-64
2022/06/03 05:21:22;;;;;;;4.70;2.45;;;18.30;61.30;;;;;;10055422;28;20048;-63
2022/06/03 05:26:31;;;;;;;4.38;2.38;;;18.60;60.80;;;;;;10046821;28;20029;-63
2022/06/03 05:31:41;;;;;;;2.58;2.35;;;18.70;60.30;;;;;;10056091;28;20151;-63
2022/06/03 05:36:56;;;;;;;1.73;1.42;;;18.80;60.60;;;;;;10054264;28;20044;-63
2022/06/03 05:42:24;;;;;;;2.58;1.65;;;18.90;60.70;;;;;;10050047;28;20030;-63
2022/06/03 05:47:27;;;;;;;4.07;1.80;;;19.20;60.30;;;;;;10045488;28;20029;-62
2022/06/03 05:52:35;;;;;;;4.57;1.88;;;19.50;59.90;;;;;;10035565;28;20341;-64
2022/06/03 05:57:41;;;;;;;5.75;2.30;;;19.70;59.70;;;;;;10053702;28;20484;-64
2022/06/03 06:02:49;;;;;;;2.97;2.28;;;19.80;59.60;;;;;;10053666;28;20026;-63
2022/06/03 06:08:03;;;;;;;3.75;2.05;;;19.70;60.00;;;;;;10035646;28;20034;-63
2022/06/03 06:13:20;;;;;;;5.30;2.40;;;19.90;60.10;;;;;;10051620;28;20587;-62
2022/06/03 06:18:48;;;;;;;3.92;2.38;;;20.10;59.80;;;;;;10053186;28;20033;-63
2022/06/03 06:23:43;;;;;;;4.97;2.33;;;20.30;59.60;;;;;;10051210;28;20029;-62
2022/06/03 06:29:02;;;;;;;6.68;2.78;;;20.30;59.80;;;;;;10051455;28;20036;-63
2022/06/03 06:34:04;;;;;;;8.15;2.40;;;20.40;59.60;;;;;;10051549;28;20084;-64
2022/06/03 06:39:19;;;;;;;5.78;2.20;;;20.20;60.00;;;;;;10033534;28;20829;-64
2022/06/03 06:44:52;;;;;;;3.78;2.10;;;20.20;60.10;;;;;;10029618;28;20034;-65
2022/06/03 06:50:03;;;;;;;2.45;1.80;;;19.90;60.70;;;;;;10030199;28;20192;-64
2022/06/03 06:55:18;;;;;;;2.17;1.80;;;19.80;61.20;;;;;;10024652;28;20045;-64
2022/06/03 07:00:24;;;;;;;2.47;2.00;;;19.90;61.10;;;;;;10021328;28;20080;-64
2022/06/03 07:05:35;;;;;;;3.75;1.90;;;20.20;60.50;;;;;;10038581;28;20032;-63
2022/06/03 07:10:40;;;;;;;1.75;1.65;;;20.40;60.30;;;;;;10038743;28;20101;-63
2022/06/03 07:15:39;;;;;;;1.93;1.70;;;20.20;60.60;;;;;;10033059;28;20564;-65
2022/06/03 07:20:50;;;;;;;3.58;3.22;;;20.40;60.50;;;;;;10047086;28;20858;-63
2022/06/03 07:25:54;;;;;;;3.15;1.73;;;20.30;60.40;;;;;;10044529;28;20029;-64
2022/06/03 07:30:52;;;;;;;4.50;2.25;;;20.20;60.60;;;;;;10042051;28;20385;-64
2022/06/03 07:35:46;;;;;;;3.50;1.70;;;20.40;60.40;;;;;;10046931;28;20045;-64
2022/06/03 07:40:45;;;;;;;3.05;2.08;;;20.60;60.20;;;;;;10032231;28;20037;-63
2022/06/03 07:45:52;;;;;;;3.17;1.92;;;20.60;60.30;;;;;;10043952;28;20049;-62
2022/06/03 07:50:48;;;;;;;2.50;2.30;;;20.90;60.70;;;;;;10054192;28;20060;-62
2022/06/03 07:55:40;;;;;;;6.15;2.25;;;21.30;59.90;;;;;;10057382;28;20021;-63
2022/06/03 08:00:36;;;;;;;4.43;2.25;;;21.30;60.20;;;;;;10057641;28;20048;-64
2022/06/03 08:05:26;;;;;;;4.60;1.90;;;21.50;60.30;;;;;;10045645;28;20507;-65
2022/06/03 08:15:50;;;;;;;2.53;2.10;;;21.50;61.00;;;;;;10053919;28;20028;-63
2022/06/03 08:20:47;;;;;;;4.15;2.38;;;21.70;61.20;;;;;;10054922;28;20025;-64
2022/06/03 08:25:43;;;;;;;2.35;1.90;;;22.10;60.60;;;;;;10056882;28;20025;-63
2022/06/03 08:30:34;;;;;;;4.30;3.13;;;22.40;60.40;;;;;;10056578;28;20497;-65
2022/06/03 08:35:28;;;;;;;3.17;2.03;;;22.60;60.20;;;;;;10037226;28;20119;-63
2022/06/03 08:40:38;;;;;;;;;;;22.40;60.40;;;;;;10036650;28;20028;-63
2022/06/03 08:45:47;;;;;;;3.28;2.20;;;22.30;60.50;;;;;;10030559;28;20125;-63
2022/06/03 08:51:06;;;;;;;2.40;1.95;;;22.50;60.50;;;;;;10047049;28;20042;-64
2022/06/03 08:56:00;;;;;;;5.63;2.00;;;22.50;60.20;;;;;;10046463;28;20045;-67
2022/06/03 09:00:57;;;;;;;3.17;2.28;;;22.60;60.10;;;;;;10040148;28;20416;-64
2022/06/03 09:06:11;;;;;;;5.35;2.17;;;22.80;59.90;;;;;;10048067;28;20022;-66
2022/06/03 09:11:26;;;;;;;4.60;1.90;;;22.50;60.40;;;;;;10054157;28;20029;-66
2022/06/03 09:16:18;;;;;;;3.70;2.60;;;22.60;60.50;;;;;;10041395;28;20045;-66
2022/06/03 09:21:14;;;;;;;3.45;1.90;;;23.20;60.00;;;;;;10054047;28;20041;-64
2022/06/03 09:26:11;;;;;;;3.83;2.10;;;23.50;59.60;;;;;;10040380;28;20030;-64
2022/06/03 09:31:06;;;;;;;4.63;2.17;;;23.70;59.50;;;;;;10043754;28;20488;-70
2022/06/03 09:36:01;;;;;;;3.53;2.38;;;23.90;59.70;;;;;;10055460;28;20030;-65
2022/06/03 09:40:58;;;;;;;2.33;1.88;;;24.00;59.70;;;;;;10024519;28;20076;-64
2022/06/03 09:45:54;;;;;;;6.28;2.67;;;24.10;60.00;;;;;;10021551;28;20038;-64
2022/06/03 09:50:50;;;;;;;6.90;2.67;;;24.20;60.00;;;;;;10054036;28;20033;-63
2022/06/03 09:55:47;;;;;;;3.38;2.35;;;24.20;59.80;;;;;;10037093;28;20022;-66
2022/06/03 10:00:52;;;;;;;4.55;2.45;;;23.80;60.30;;;;;;10027193;28;20037;-63
2022/06/03 10:05:47;;;;;;;2.78;2.25;;;23.60;60.40;;;;;;10043090;28;20029;-67
2022/06/03 10:15:56;;;;;;;4.82;2.65;;;23.20;60.70;;;;;;10046019;28;20111;-61
2022/06/03 10:20:48;;;;;;;3.95;2.20;;;23.20;60.70;;;;;;10036248;28;20411;-62
2022/06/03 10:25:44;;;;;;;5.60;2.83;;;23.20;60.60;;;;;;10053018;28;20037;-62
2022/06/03 10:30:37;;;;;;;6.25;2.70;;;23.20;60.50;;;;;;10045365;28;20530;-62
2022/06/03 10:35:31;;;;;;;10.57;3.38;;;23.10;60.80;;;;;;10048380;28;20037;-62
2022/06/03 10:40:26;;;;;;;4.00;2.63;;;23.10;61.00;;;;;;10052423;28;20283;-64
2022/06/03 10:45:17;;;;;;;5.22;2.97;;;23.40;61.10;;;;;;10048295;28;20118;-62
2022/06/03 10:50:27;;;;;;;4.90;3.05;;;23.70;61.10;;;;;;10051320;28;20155;-63
2022/06/03 11:05:47;;;;;;;9.45;3.45;;;25.00;61.20;;;;;;10042696;28;20117;-64
2022/06/03 11:10:41;;;;;;;;;;;25.60;60.80;;;;;;10035538;28;20029;-63
2022/06/03 11:15:36;;;;;;;4.50;2.92;;;25.60;60.60;;;;;;10052783;28;19905;-63
2022/06/03 11:20:39;;;;;;;4.45;3.28;;;25.80;60.70;;;;;;10053229;28;20026;-64
2022/06/03 11:25:31;;;;;;;7.28;3.25;;;26.00;60.10;;;;;;10043923;28;20033;-62
2022/06/03 11:30:48;;;;;;;6.68;3.63;;;25.90;60.20;;;;;;10061765;28;20484;-64
2022/06/03 11:35:46;;;;;;;4.10;3.17;;;25.90;60.30;;;;;;10043996;28;20026;-62
2022/06/03 11:40:43;;;;;;;6.20;2.97;;;26.40;59.90;;;;;;10060270;28;20432;-62
2022/06/03 11:45:42;;;;;;;3.17;2.70;;;26.60;59.50;;;;;;10051820;28;20041;-62
2022/06/03 11:50:35;;;;;;;5.13;2.83;;;26.70;59.30;;;;;;10058788;28;20045;-63
2022/06/03 11:55:29;;;;;;;2.60;2.35;;;26.60;59.40;;;;;;10058447;28;20143;-62
2022/06/03 12:00:20;;;;;;;;;;;26.00;60.00;;;;;;10059303;28;20506;-62
2022/06/03 12:05:27;;;;;;;6.30;2.70;;;25.60;60.10;;;;;;10058065;28;19925;-63
2022/06/03 12:11:01;;;;;;;4.47;3.45;;;25.50;60.30;;;;;;10050707;28;20613;-63
2022/06/03 12:15:58;;;;;;;5.35;2.67;;;25.70;60.30;;;;;;10024138;28;20038;-61
2022/06/03 12:20:55;;;;;;;4.97;2.88;;;25.40;60.50;;;;;;10035257;28;20399;-61
2022/06/03 12:25:51;;;;;;;5.32;3.25;;;25.30;61.20;;;;;;10026944;28;20022;-65
2022/06/03 12:30:44;;;;;;;4.68;2.53;;;25.30;61.10;;;;;;10035716;28;20032;-64
2022/06/03 12:35:52;;;;;;;4.60;2.78;;;25.30;61.30;;;;;;10038512;28;20135;-65
2022/06/03 12:40:42;;;;;;;3.13;2.03;;;25.50;61.20;;;;;;10035043;28;20021;-64
2022/06/03 12:45:35;;;;;;;3.90;2.65;;;25.60;61.30;;;;;;10030446;28;20104;-64
2022/06/03 12:50:30;;;;;;;3.22;2.85;;;25.60;61.50;;;;;;10023328;28;20048;-63
2022/06/03 12:55:32;;;;;;;4.18;3.45;;;25.80;61.50;;;;;;10027761;28;20149;-63
2022/06/03 13:00:36;;;;;;;5.65;2.58;;;26.40;61.20;;;;;;10057225;28;20038;-62
2022/06/03 13:05:34;;;;;;;3.88;2.70;;;26.60;61.00;;;;;;10047734;28;20171;-62
2022/06/03 13:10:28;;;;;;;4.03;2.53;;;26.40;61.30;;;;;;10038595;28;20030;-63
2022/06/03 13:15:21;;;;;;;5.30;2.65;;;25.90;62.20;;;;;;10053653;28;20033;-62
2022/06/03 13:20:34;;;;;;;4.35;3.58;;;25.70;62.50;;;;;;10055462;28;20028;-62
2022/06/03 13:25:27;;;;;;;4.03;3.10;;;25.70;63.00;;;;;;10051098;28;20044;-63
2022/06/03 13:30:18;;;;;;;2.83;2.50;;;25.90;62.60;;;;;;10053903;28;20103;-65
2022/06/03 13:35:21;;;;;;;3.92;2.67;;;26.10;62.60;;;;;;10052636;28;20486;-62
2022/06/03 13:40:38;;;;;;;4.05;3.05;;;26.30;62.60;;;;;;10052616;28;20040;-63
2022/06/03 13:45:55;;;;;;;5.70;3.05;;;26.20;63.30;;;;;;10039739;28;20061;-64
2022/06/03 13:50:46;;;;;;;4.50;3.10;;;25.90;64.60;;;;;;10053129;28;20050;-63
2022/06/03 13:55:44;;;;;;;4.20;2.92;;;25.70;64.20;;;;;;10053884;28;20484;-65
2022/06/03 14:00:55;;;;;;;3.13;2.72;;;25.90;64.20;;;;;;10036566;28;20038;-64
2022/06/03 14:05:51;;;;;;;5.35;3.15;;;26.20;64.00;;;;;;10053746;28;20033;-66
2022/06/03 14:10:49;;;;;;;5.07;2.60;;;26.20;64.30;;;;;;10053923;28;20528;-63
2022/06/03 14:16:00;;;;;;;4.38;2.63;;;26.50;64.00;;;;;;10054092;28;20025;-66
2022/06/03 14:20:52;;;;;;;3.10;2.25;;;26.60;63.80;;;;;;10045426;28;20038;-66
2022/06/03 14:26:02;;;;;;;10.82;2.55;;;26.30;64.10;;;;;;10054123;28;20033;-66
2022/06/03 14:31:11;;;;;;;4.90;3.13;;;25.90;64.90;;;;;;10053307;28;20029;-63
2022/06/03 14:36:04;;;;;;;3.50;2.92;;;25.80;64.70;;;;;;10043788;28;20048;-71
2022/06/03 14:40:56;;;;;;;3.77;3.10;;;25.50;65.20;;;;;;10055230;28;20025;-60
2022/06/03 14:45:51;;;;;;;3.90;3.17;;;25.40;65.20;;;;;;10047628;28;20417;-61
2022/06/03 14:50:48;;;;;;;4.50;2.90;;;25.30;65.30;;;;;;10053826;28;20049;-61
2022/06/03 14:55:53;;;;;;;5.07;3.38;;;25.30;65.50;;;;;;10052396;28;20029;-61
2022/06/03 15:01:00;;;;;;;5.47;3.88;;;25.90;65.10;;;;;;10051655;28;20033;-62
2022/06/03 15:06:08;;;;;;;3.65;2.88;;;26.30;64.80;;;;;;10034298;28;20037;-62
2022/06/03 15:11:13;;;;;;;4.43;3.20;;;26.10;64.80;;;;;;10052403;28;20049;-64
2022/06/03 15:16:06;;;;;;;2.88;2.22;;;26.30;64.50;;;;;;10051824;28;20032;-63
2022/06/03 15:21:32;;;;;;;9.23;4.90;;;26.40;64.50;;;;;;10052290;28;20374;-69
2022/06/03 15:26:27;;;;;;;5.13;3.10;;;26.40;64.60;;;;;;10042063;28;20531;-66
2022/06/03 15:31:23;;;;;;;4.30;3.00;;;26.60;64.20;;;;;;10052151;28;20033;-63
2022/06/03 15:36:22;;;;;;;2.78;2.20;;;26.30;64.40;;;;;;10052239;28;20021;-61
2022/06/03 15:41:19;;;;;;;4.85;3.47;;;25.90;65.50;;;;;;10052229;28;20399;-62
2022/06/03 15:46:27;;;;;;;5.18;3.17;;;25.90;65.40;;;;;;10039280;28;20065;-63
2022/06/03 15:51:20;;;;;;;4.43;3.50;;;26.20;65.80;;;;;;10051906;28;20511;-62
2022/06/03 15:56:11;;;;;;;5.25;3.85;;;27.80;63.40;;;;;;10051245;28;20103;-64
2022/06/03 16:01:32;;;;;;;3.90;3.10;;;30.20;60.80;;;;;;10051431;28;20503;-63
2022/06/03 16:06:46;;;;;;;4.32;2.80;;;33.00;55.50;;;;;;10042405;28;20034;-64
2022/06/03 16:11:43;;;;;;;4.10;2.97;;;34.20;54.60;;;;;;10049778;28;20030;-62
2022/06/03 16:17:04;;;;;;;3.75;2.80;;;34.70;54.60;;;;;;10048163;28;20487;-63
2022/06/03 16:22:21;;;;;;;8.30;3.45;;;32.80;55.20;;;;;;10058950;28;20048;-66
2022/06/03 16:27:42;;;;;;;8.15;3.10;;;30.40;57.30;;;;;;10054476;28;20190;-63
2022/06/03 16:33:10;;;;;;;4.15;2.97;;;28.70;59.20;;;;;;10055518;28;20193;-64
2022/06/03 16:38:12;;;;;;;3.15;2.70;;;27.80;60.10;;;;;;10005774;28;20426;-65
2022/06/03 16:43:42;;;;;;;4.75;2.95;;;27.20;60.60;;;;;;10025403;28;20042;-64
2022/06/03 16:48:46;;;;;;;4.32;3.30;;;27.80;59.40;;;;;;10033017;28;20034;-69
2022/06/03 16:53:37;;;;;;;3.53;2.45;;;28.30;58.50;;;;;;10051610;28;20474;-63
2022/06/03 16:58:28;;;;;;;3.53;2.80;;;28.20;58.90;;;;;;10045966;28;20041;-66
2022/06/03 17:03:44;;;;;;;4.22;3.17;;;27.80;59.60;;;;;;10057915;28;20504;-63
2022/06/03 17:08:51;;;;;;;3.50;2.88;;;27.40;59.20;;;;;;10049104;28;20053;-63
2022/06/03 17:13:44;;;;;;;7.45;4.35;;;26.90;60.00;;;;;;10055797;28;20026;-66
2022/06/03 17:18:35;;;;;;;8.27;4.70;;;26.70;60.10;;;;;;10056973;28;20029;-65
2022/06/03 17:24:04;;;;;;;3.90;2.63;;;26.60;60.30;;;;;;10037545;28;20060;-63
2022/06/03 17:29:21;;;;;;;4.30;3.42;;;30.20;56.30;;;;;;10016641;28;20492;-63
2022/06/03 17:34:33;;;;;;;6.15;2.60;;;31.60;54.40;;;;;;10045164;28;20037;-64
2022/06/03 17:39:32;;;;;;;3.30;2.65;;;31.90;53.00;;;;;;10044036;28;20036;-64
2022/06/03 17:44:35;;;;;;;3.53;3.08;;;32.80;53.60;;;;;;10045231;28;20037;-64
2022/06/03 17:50:02;;;;;;;3.75;2.83;;;33.00;53.30;;;;;;10034850;28;20030;-65
2022/06/03 17:55:26;;;;;;;8.05;3.63;;;32.60;52.20;;;;;;10034650;28;20398;-64
2022/06/03 18:00:23;;;;;;;6.32;3.50;;;30.90;54.90;;;;;;10036230;28;20113;-64
2022/06/03 18:05:25;;;;;;;5.18;3.45;;;28.90;57.80;;;;;;10045615;28;20041;-64
2022/06/03 18:10:30;;;;;;;4.82;3.28;;;27.40;59.80;;;;;;10043950;28;20494;-64
2022/06/03 18:15:21;;;;;;;3.88;3.42;;;26.90;61.20;;;;;;10046827;28;20029;-64
2022/06/03 18:20:34;;;;;;;3.70;3.10;;;26.50;60.20;;;;;;10049902;28;20124;-64
2022/06/03 18:25:53;;;;;;;8.05;4.57;;;26.10;62.80;;;;;;10053102;28;20029;-65
2022/06/03 18:31:05;;;;;;;6.57;4.40;;;25.90;62.60;;;;;;10050246;28;20099;-64
2022/06/03 18:36:34;;;;;;;5.35;4.00;;;25.70;64.00;;;;;;10044470;28;20036;-66
2022/06/03 18:41:46;;;;;;;5.82;3.95;;;25.50;65.00;;;;;;10050944;28;20052;-65
2022/06/03 18:47:17;;;;;;;3.60;3.10;;;25.30;65.90;;;;;;10046360;28;20483;-65
2022/06/03 18:52:31;;;;;;;4.88;3.85;;;25.10;68.20;;;;;;10053174;28;20049;-65
2022/06/03 18:57:37;;;;;;;3.80;3.30;;;24.80;68.70;;;;;;10053563;28;20030;-66
2022/06/03 19:02:35;;;;;;;3.72;3.13;;;24.60;68.40;;;;;;10053335;28;20397;-64
2022/06/03 19:07:35;;;;;;;7.18;3.55;;;24.60;67.90;;;;;;10053210;28;20029;-64
2022/06/03 19:12:52;;;;;;;4.88;4.00;;;24.60;68.30;;;;;;10049679;28;20033;-65
2022/06/03 19:17:52;;;;;;;6.00;4.40;;;24.60;68.00;;;;;;10052411;28;20022;-65
2022/06/03 19:23:11;;;;;;;4.82;3.90;;;24.30;69.80;;;;;;10034189;28;20037;-64
2022/06/03 19:28:23;;;;;;;3.40;3.10;;;24.10;70.80;;;;;;10045434;28;20052;-64
2022/06/03 19:33:19;;;;;;;6.32;3.92;;;24.10;71.90;;;;;;10052359;28;20034;-65
2022/06/03 19:38:29;;;;;;;4.40;4.00;;;24.00;70.90;;;;;;10052047;28;20048;-65
2022/06/03 19:43:35;;;;;;;5.47;3.65;;;24.00;71.90;;;;;;10051494;28;20033;-64
2022/06/03 19:48:35;;;;;;;6.18;4.43;;;24.00;71.70;;;;;;10034937;28;20021;-64
2022/06/03 19:53:48;;;;;;;3.83;3.42;;;23.90;72.90;;;;;;10059312;28;20470;-64
2022/06/03 19:58:43;;;;;;;5.05;4.30;;;23.80;74.00;;;;;;10054234;28;20052;-65
2022/06/03 20:03:42;;;;;;;8.02;4.13;;;23.60;74.10;;;;;;10059950;28;20454;-65
2022/06/03 20:08:53;;;;;;;4.60;4.18;;;23.60;74.80;;;;;;10039071;28;20029;-64
2022/06/03 20:13:54;;;;;;;5.03;4.22;;;23.60;75.40;;;;;;10058169;28;20518;-65
2022/06/03 20:19:10;;;;;;;4.95;3.63;;;23.50;75.90;;;;;;10059028;28;20431;-64
2022/06/03 20:24:20;;;;;;;5.55;4.43;;;23.60;76.50;;;;;;10055337;28;20041;-65
2022/06/03 20:29:19;;;;;;;4.93;4.32;;;23.50;76.00;;;;;;10058318;28;20049;-65
2022/06/03 20:34:25;;;;;;;8.55;4.90;;;23.40;77.10;;;;;;10043662;28;20411;-65
2022/06/03 20:39:45;;;;;;;6.80;4.18;;;23.40;78.10;;;;;;10047182;28;20029;-65
2022/06/03 20:44:57;;;;;;;5.50;4.45;;;23.30;77.40;;;;;;10045781;28;20546;-65
2022/06/03 20:50:20;;;;;;;6.40;4.93;;;23.40;77.90;;;;;;10055048;28;20416;-65
2022/06/03 20:55:16;;;;;;;8.27;5.57;;;23.20;78.50;;;;;;10054099;28;20043;-65
2022/06/03 21:00:10;;;;;;;6.65;5.03;;;23.20;78.50;;;;;;10056491;28;20029;-65
2022/06/03 21:15:24;;;;;;;8.80;5.13;;;22.90;79.60;;;;;;10056367;28;20110;-65
2022/06/03 21:20:16;;;;;;;6.18;4.85;;;23.00;79.60;;;;;;10056278;28;20086;-66
2022/06/03 21:25:08;;;;;;;8.00;6.55;;;23.10;79.90;;;;;;10054957;28;20785;-65
2022/06/03 21:29:59;;;;;;;6.78;5.63;;;22.90;80.40;;;;;;10056105;28;20030;-64
2022/06/03 21:35:09;;;;;;;8.35;5.68;;;22.90;80.80;;;;;;10055495;28;20022;-64
2022/06/03 21:40:13;;;;;;;7.18;6.22;;;22.80;81.50;;;;;;10055394;28;20030;-65
2022/06/03 21:45:07;;;;;;;6.15;5.15;;;22.80;81.80;;;;;;10048832;28;20045;-64
2022/06/03 21:50:12;;;;;;;7.32;5.20;;;22.70;82.00;;;;;;10055089;28;20064;-66
2022/06/03 21:55:15;;;;;;;7.30;4.85;;;22.70;82.30;;;;;;10055660;28;20034;-65
2022/06/03 22:00:15;;;;;;;6.05;5.45;;;22.60;82.60;;;;;;10045931;28;20056;-64
2022/06/03 22:05:09;;;;;;;8.32;5.32;;;22.50;82.90;;;;;;10054162;28;20399;-65
2022/06/03 22:10:01;;;;;;;5.73;4.90;;;22.50;83.20;;;;;;10053585;28;20494;-64
2022/06/03 22:14:52;;;;;;;7.45;5.60;;;22.50;83.30;;;;;;10054351;28;20029;-66
2022/06/03 22:19:44;;;;;;;7.30;5.40;;;22.40;83.60;;;;;;10054430;28;20415;-64
2022/06/03 22:24:34;;;;;;;6.07;4.50;;;22.20;84.10;;;;;;10053398;28;20044;-66
2022/06/03 22:29:45;;;;;;;12.02;6.97;;;22.20;84.50;;;;;;10053992;28;20581;-66
2022/06/03 22:35:01;;;;;;;8.30;5.13;;;22.30;84.70;;;;;;10053933;28;20102;-64
2022/06/03 22:40:00;;;;;;;5.90;5.07;;;22.40;84.70;;;;;;10053568;28;20021;-65
2022/06/03 22:44:51;;;;;;;5.82;4.78;;;22.30;84.80;;;;;;10047015;28;20037;-65
2022/06/03 22:49:42;;;;;;;6.57;4.60;;;22.20;85.20;;;;;;10053390;28;20067;-65
2022/06/03 22:54:32;;;;;;;5.13;4.63;;;22.20;85.50;;;;;;10053312;28;20385;-65
2022/06/03 22:59:23;;;;;;;7.45;5.57;;;22.20;85.60;;;;;;10054372;28;20025;-65
2022/06/03 23:04:16;;;;;;;7.55;5.50;;;22.10;85.50;;;;;;10050997;28;20045;-64
2022/06/03 23:09:07;;;;;;;5.68;4.93;;;22.00;86.00;;;;;;10052125;28;20388;-64
2022/06/03 23:13:58;;;;;;;10.57;5.53;;;22.00;86.20;;;;;;10051993;28;20052;-65
2022/06/03 23:18:49;;;;;;;7.13;5.10;;;22.10;86.10;;;;;;10053285;28;20053;-64
2022/06/03 23:23:41;;;;;;;7.47;5.40;;;22.10;86.50;;;;;;10046313;28;20379;-63
2022/06/03 23:28:33;;;;;;;4.97;4.28;;;22.10;86.70;;;;;;10047262;28;20084;-65
2022/06/03 23:33:24;;;;;;;5.25;4.70;;;22.00;87.10;;;;;;10051342;28;20185;-64
2022/06/03 23:38:15;;;;;;;6.03;4.88;;;22.00;87.10;;;;;;10050694;28;20104;-63
2022/06/03 23:48:16;;;;;;;6.45;5.57;;;22.00;86.70;;;;;;10045360;28;20109;-62
2022/06/03 23:53:10;;;;;;;6.68;5.15;;;22.00;87.20;;;;;;10050942;28;20423;-63
2022/06/03 23:58:01;;;;;;;8.48;5.35;;;22.00;87.40;;;;;;10051332;28;20032;-63
